Latest Coastal Weather Observations for Portland Airport

IDS60701

Issued at 9:31 am CST Saturday 28 May 2016 (issued every 10 minutes, with the page automatically refreshed every 10 minutes)

About coastal observations | Map of coastal stations | Coastal observations for SA | Marine services | Other Formats
Station Details ID: 090171 Name: CASHMORE AIRPORT Lat: -38.31 Lon: 141.47 Height: 80.9 m
Data from the previous 72 hours. | See also: Recent months at Portland Airport
Date/Time
CST
Temp

°C
Wind Pressure Rain
since 9am
mm
Weather Cloud Vis
km
Sea
Height
m
Swell
Dir
 
Speed
knots
Gust
knots
hPa Trend Height
m
Period
s
Dir
28/09:30am 11.4 SSE 7 13 1014.9 - 0.0 - Partly cloudy 10 - - - -
28/09:00am 12.0 SSE 9 14 1014.5 - 0.0 - Partly cloudy 10 - - - -
28/08:30am 11.5 S 7 14 1014.3 - 5.4 - Cloudy 10 - - - -
28/08:00am 10.9 S 8 13 1014.0 - 5.4 - Partly cloudy 10 - - - -
28/07:30am 11.0 S 8 13 1013.7 - 5.4 - Partly cloudy 10 - - - -
28/07:00am 10.8 S 8 14 1013.4 - 5.4 - Partly cloudy 10 - - - -
28/06:30am 10.6 S 8 13 1012.9 - 5.4 - Partly cloudy 10 - - - -
28/06:00am 10.1 SSE 6 11 1012.5 - 5.4 - Partly cloudy 10 - - - -
28/05:30am 10.7 SSE 7 11 1012.2 - 5.4 - Cloudy 10 - - - -
28/05:00am 11.1 SSE 8 13 1011.7 - 5.4 - Partly cloudy 10 - - - -
28/04:30am 11.0 SSE 8 12 1011.4 - 5.4 - Partly cloudy 10 - - - -
28/04:00am 10.1 SSE 8 13 1011.2 - 5.4 - Partly cloudy 10 - - - -
28/03:30am 10.3 SSE 8 13 1010.9 - 5.4 - Partly cloudy 10 - - - -
28/03:00am 10.9 SSE 9 14 1010.7 - 5.4 - Partly cloudy 10 - - - -
28/02:30am 9.5 SSE 5 9 1010.5 - 5.4 - Partly cloudy 10 - - - -
28/02:00am 10.2 SE 7 10 1010.5 - 5.4 - Partly cloudy 10 - - - -
28/01:30am 10.5 SSE 8 11 1010.1 - 5.4 - Partly cloudy 10 - - - -
28/01:00am 10.3 SE 8 13 1009.8 - 5.4 - Partly cloudy 10 - - - -
28/12:30am 8.5 SE 5 6 1009.5 - 5.4 - Partly cloudy 10 - - - -
28/12:00am 9.5 CALM 0 0 1009.4 - 5.4 - Partly cloudy 10 - - - -
 
Date/Time
CST
Temp

°C
Wind Pressure Rain
since 9am
mm
Weather Cloud Vis
km
Sea
Height
m
Swell
Dir
 
Speed
knots
Gust
knots
hPa Trend Height
m
Period
s
Dir
27/11:30pm 10.0 SE 1 5 1009.2 - 5.4 - Cloudy 10 - - - -
27/11:00pm 9.9 E 3 5 1008.9 - 5.4 - Partly cloudy 10 - - - -
27/10:30pm 9.7 E 5 8 1008.7 - 5.4 - Partly cloudy 10 - - - -
27/10:00pm 10.1 ESE 6 9 1008.7 - 5.4 - Partly cloudy 10 - - - -
27/09:30pm 10.1 ESE 7 10 1008.3 - 5.2 - Partly cloudy 10 - - - -
27/09:00pm 10.3 ESE 7 10 1007.9 - 4.8 - Partly cloudy 10 - - - -
27/08:30pm 10.2 ESE 3 4 1007.7 - 4.6 Recent precip. Cloudy 10 - - - -
27/08:00pm 10.1 E 4 6 1007.3 - 4.6 - Partly cloudy 10 - - - -
27/07:30pm 9.8 ENE 4 5 1007.0 - 4.2 - Partly cloudy 10 - - - -
27/07:00pm 9.8 ENE 4 6 1006.7 - 4.2 - Partly cloudy 10 - - - -
27/06:30pm 9.7 ENE 5 7 1006.3 - 4.2 - Partly cloudy 10 - - - -
27/06:00pm 9.7 ENE 6 8 1006.1 - 4.2 - Partly cloudy 10 - - - -
27/05:30pm 9.7 E 7 10 1005.9 - 4.2 Rain Cloudy 10 - - - -
27/05:00pm 9.6 E 6 9 1005.6 - 4.0 - Partly cloudy 10 - - - -
27/04:30pm 9.5 ESE 5 7 1005.4 - 3.4 - Partly cloudy 10 - - - -
27/04:00pm 10.1 E 6 9 1005.2 - 2.2 - Partly cloudy 10 - - - -
27/03:30pm 10.6 ENE 5 8 1005.1 - 1.2 - Partly cloudy 9 - - - -
27/03:00pm 10.9 ENE 6 9 1005.0 - 0.4 - Partly cloudy 10 - - - -
27/02:30pm 11.0 ENE 6 8 1004.8 - 0.2 Recent precip. Cloudy 10 - - - -
27/02:00pm 11.3 NE 5 7 1004.8 - 0.2 - Partly cloudy 10 - - - -
27/01:30pm 11.8 NE 8 12 1005.0 - 0.0 - Cloudy 10 - - - -
27/01:00pm 12.0 NE 7 11 1005.2 - 0.0 - Partly cloudy 10 - - - -
27/12:30pm 12.0 NNE 9 13 1005.3 - 0.0 - - 10 - - - -
27/12:00pm 11.4 NNE 7 9 1005.6 - 0.0 - - 10 - - - -
27/11:30am 10.6 NE 7 8 1005.9 - 0.0 - Partly cloudy 10 - - - -
27/11:00am 9.3 NNE 6 9 1006.7 - 0.0 - - 10 - - - -
27/10:30am 9.0 NNE 6 9 1007.3 - 0.0 - - 10 - - - -
27/10:00am 8.9 N 6 9 1007.7 - 0.0 - - 10 - - - -
27/09:30am 7.5 NNE 5 6 1007.8 - 0.0 - - 10 - - - -
27/09:00am 7.2 NNE 5 7 1007.8 - 0.0 - - 10 - - - -
27/08:30am 6.7 NNE 5 7 1007.7 - 1.0 - Mostly cloudy 10 - - - -
27/08:00am 6.3 NNE 7 9 1007.7 - 1.0 - Partly cloudy 10 - - - -
27/07:30am 6.7 N 6 8 1007.7 - 1.0 - Partly cloudy 10 - - - -
27/07:00am 6.8 N 6 7 1007.6 - 0.8 - Partly cloudy 10 - - - -
27/06:30am 6.1 N 6 7 1007.5 - 0.8 - Partly cloudy 10 - - - -
27/06:00am 6.0 N 4 6 1007.4 - 0.8 - Partly cloudy 10 - - - -
27/05:30am 6.1 N 5 6 1007.6 - 0.8 - Partly cloudy 10 - - - -
27/05:00am 6.1 NNW 7 9 1007.8 - 0.8 - Partly cloudy 10 - - - -
27/04:30am 5.5 NNW 3 5 1007.6 - 0.8 - - 10 - - - -
27/04:00am 6.5 NNW 5 8 1007.7 - 0.8 - Partly cloudy 10 - - - -
27/03:30am 6.2 NNW 2 3 1007.8 - 0.8 - Partly cloudy 10 - - - -
27/03:00am 6.2 CALM 0 0 1007.9 - 0.8 - Partly cloudy 10 - - - -
27/02:30am 5.8 CALM 0 0 1008.1 - 0.8 - - 10 - - - -
27/02:00am 6.2 WNW 2 4 1008.2 - 0.8 - - 10 - - - -
27/01:30am 6.9 WNW 3 4 1008.1 - 0.8 - Partly cloudy 10 - - - -
27/01:00am 6.5 WNW 4 5 1008.3 - 0.8 - Partly cloudy 10 - - - -
27/12:30am 7.2 WNW 3 5 1008.3 - 0.8 - Partly cloudy 10 - - - -
27/12:00am 7.7 NNW 7 9 1008.5 - 0.8 - Partly cloudy 10 - - - -
 
Date/Time
CST
Temp

°C
Wind Pressure Rain
since 9am
mm
Weather Cloud Vis
km
Sea
Height
m
Swell
Dir
 
Speed
knots
Gust
knots
hPa Trend Height
m
Period
s
Dir
26/11:30pm 6.6 NW 4 5 1008.6 - 0.8 Recent precip. Partly cloudy 10 - - - -
26/11:00pm 6.7 WNW 2 3 1008.6 - 0.8 - Partly cloudy 10 - - - -
26/10:30pm 6.7 WNW 3 4 1008.6 - 0.6 - Partly cloudy 10 - - - -
26/10:00pm 6.7 WNW 4 4 1008.8 - 0.6 - Partly cloudy 10 - - - -
26/09:30pm 6.8 WNW 3 4 1008.9 - 0.6 - Partly cloudy 10 - - - -
26/09:00pm 7.9 WNW 5 6 1009.0 - 0.6 - Partly cloudy 10 - - - -
26/08:30pm 7.9 WNW 4 5 1008.7 - 0.6 Recent precip. Mostly clear 10 - - - -
26/08:00pm 9.3 NW 3 6 1008.6 - 0.6 - Partly cloudy 7 - - - -
26/07:30pm 9.2 CALM 0 0 1008.5 - 0.4 - Partly cloudy 10 - - - -
26/07:00pm 9.6 WNW 3 4 1008.4 - 0.4 - Partly cloudy 10 - - - -
26/06:30pm 9.7 NW 6 7 1008.2 - 0.4 - Partly cloudy 9 - - - -
26/06:00pm 10.2 WNW 5 6 1008.0 - 0.2 - Partly cloudy 8 - - - -
26/05:30pm 10.9 W 8 13 1007.7 - 0.0 - Cloudy 10 - - - -
26/05:00pm 10.4 SW 5 6 1007.4 - 0.0 - Partly cloudy 10 - - - -
26/04:30pm 10.6 SW 5 7 1007.2 - 0.0 - Partly cloudy 10 - - - -
26/04:00pm 11.6 SW 6 10 1007.0 - 0.0 - Partly cloudy 10 - - - -
26/03:30pm 12.5 SW 8 12 1006.8 - 0.0 - Partly cloudy 10 - - - -
26/03:00pm 12.7 SW 7 11 1006.7 - 0.0 - Partly cloudy 10 - - - -
26/02:30pm 13.4 WSW 9 12 1006.4 - 0.0 - Partly cloudy 10 - - - -
26/02:00pm 13.0 SW 8 11 1006.3 - 0.0 - Partly cloudy 10 - - - -
26/01:30pm 13.3 SW 8 13 1006.3 - 0.0 - Partly cloudy 10 - - - -
26/01:00pm 13.3 SSW 9 15 1006.3 - 0.0 - Partly cloudy 10 - - - -
26/12:30pm 13.1 SSW 10 15 1006.4 - 0.0 - Partly cloudy 10 - - - -
26/12:00pm 12.7 SSW 10 14 1006.4 - 0.0 - - 10 - - - -
26/11:30am 13.2 SSW 9 15 1006.3 - 0.0 - Mostly clear 10 - - - -
26/11:00am 13.3 SW 9 15 1006.5 - 0.0 - Partly cloudy 10 - - - -
26/10:30am 13.3 SW 9 15 1006.5 - 0.0 - Partly cloudy 10 - - - -
26/10:00am 11.3 SSW 8 13 1006.6 - 0.0 - Partly cloudy 10 - - - -
26/09:30am 12.5 SW 8 13 1006.4 - 0.0 - - 10 - - - -
26/09:00am 11.2 SW 9 12 1006.2 - 0.0 - Partly cloudy 10 - - - -
26/08:30am 11.2 WSW 9 13 1006.0 - 21.8 Recent precip. Mostly clear 10 - - - -
26/08:00am 9.9 SW 8 10 1005.8 - 21.8 - Partly cloudy 10 - - - -
26/07:30am 9.1 SW 6 8 1005.5 - 21.6 - Partly cloudy 10 - - - -
26/07:00am 9.1 W 3 4 1005.2 - 21.6 - Partly cloudy 10 - - - -
26/06:30am 9.5 SSW 4 5 1005.0 - 21.6 - Partly cloudy 10 - - - -
26/06:00am 9.7 SSE 4 7 1005.0 - 21.6 - Partly cloudy 10 - - - -
26/05:30am 9.9 WSW 5 7 1005.1 - 21.6 Rain Cloudy 10 - - - -
26/05:29am 9.9 WSW 5 7 1005.1 - 21.6 - Partly cloudy 10 - - - -
26/05:00am 9.8 WSW 5 6 1005.2 - 21.0 - Partly cloudy 4 - - - -
26/04:53am 9.8 SW 4 6 1005.2 - 20.2 - Partly cloudy 6 - - - -
26/04:31am 9.8 SW 7 11 1005.0 - 19.6 - Partly cloudy 9 - - - -
26/04:30am 9.8 SW 8 12 1005.0 - 19.6 - Partly cloudy 9 - - - -
26/04:00am 10.3 WSW 11 14 1004.7 - 18.4 - Partly cloudy 5 - - - -
26/03:55am 10.4 WSW 11 14 1004.7 - 17.6 - Partly cloudy 6 - - - -
26/03:30am 10.5 SW 7 10 1004.5 - 17.0 - Partly cloudy 10 - - - -
26/03:00am 10.6 W 2 3 1004.5 - 17.0 - Partly cloudy 10 - - - -
26/02:30am 10.8 W 3 4 1004.6 - 17.0 Recent precip. Cloudy 10 - - - -
26/02:00am 10.9 NNW 3 5 1004.7 - 16.8 - Partly cloudy 10 - - - -
26/01:30am 10.9 NNW 4 5 1004.5 - 16.8 - Cloudy 10 - - - -
26/01:04am 10.9 NNW 3 4 1004.7 - 16.6 - Partly cloudy 10 - - - -
26/01:00am 10.9 NNW 3 5 1004.7 - 16.6 - Partly cloudy 10 - - - -
26/12:58am 11.0 NNW 4 6 1004.7 - 16.6 - Partly cloudy 10 - - - -
26/12:37am 10.9 NW 4 6 1005.0 - 16.4 - Partly cloudy 6 - - - -
26/12:30am 10.9 NNW 4 5 1004.9 - 16.4 - Partly cloudy 10 - - - -
26/12:00am 10.8 N 5 7 1005.4 - 16.4 - Partly cloudy 10 - - - -
 
Date/Time
CST
Temp

°C
Wind Pressure Rain
since 9am
mm
Weather Cloud Vis
km
Sea
Height
m
Swell
Dir
 
Speed
knots
Gust
knots
hPa Trend Height
m
Period
s
Dir
25/11:47pm 10.8 N 5 6 1005.2 - 16.4 - Partly cloudy 10 - - - -
25/11:46pm 10.8 N 5 6 1005.1 - 16.4 - Partly cloudy 10 - - - -
25/11:36pm 10.8 N 3 4 1005.1 - 16.4 - Cloudy 10 - - - -
25/11:31pm 10.9 N 3 4 1005.0 - 16.4 - Partly cloudy 9 - - - -
25/11:30pm 10.9 N 3 4 1005.0 - 16.4 Recent precip. Cloudy 9 - - - -
25/11:28pm 10.9 N 3 4 1005.1 - 16.4 - Partly cloudy 8 - - - -
25/11:02pm 10.9 CALM 0 0 1005.3 - 16.2 - Partly cloudy 6 - - - -
25/11:00pm 10.9 CALM 0 3 1005.3 - 16.2 - Partly cloudy 10 - - - -
25/10:30pm 10.9 NNW 3 4 1005.5 - 16.2 - Partly cloudy 10 - - - -
25/10:10pm 10.9 NNW 4 6 1005.7 - 16.2 - Partly cloudy 6 - - - -
25/10:09pm 10.9 NNW 4 6 1005.7 - 16.2 - Partly cloudy 7 - - - -
25/10:00pm 10.9 NNW 4 6 1005.7 - 16.2 - Cloudy 7 - - - -
25/09:55pm 10.9 NNW 5 7 1005.9 - 16.2 - Cloudy 6 - - - -
25/09:42pm 10.9 NNW 5 7 1006.1 - 16.2 - Cloudy 10 - - - -
25/09:30pm 10.9 NNW 5 8 1006.0 - 16.2 - Cloudy 6 - - - -
25/09:25pm 10.9 NNW 6 8 1006.0 - 16.2 - Cloudy 6 - - - -
25/09:23pm 10.9 NNW 6 8 1005.9 - 16.2 - Cloudy 7 - - - -
25/09:22pm 10.9 NNW 6 8 1005.9 - 16.2 - Cloudy 8 - - - -
25/09:02pm 10.9 NNW 7 9 1006.1 - 16.0 - Cloudy 6 - - - -
25/09:00pm 10.9 NNW 7 9 1006.1 - 16.0 - Cloudy 7 - - - -
25/08:30pm 10.9 NNW 7 10 1005.9 - 15.6 Recent precip. Mostly cloudy 10 - - - -
25/08:10pm 10.9 NNW 7 11 1006.1 - 15.2 - Partly cloudy 10 - - - -
25/08:00pm 10.9 NNW 8 11 1006.0 - 15.0 - Cloudy 6 - - - -
25/07:56pm 10.9 NNW 8 13 1006.0 - 14.4 - Partly cloudy 6 - - - -
25/07:54pm 10.9 NNW 8 13 1006.0 - 14.2 - Partly cloudy 7 - - - -
25/07:30pm 10.9 NNW 8 11 1005.7 - 12.4 - Partly cloudy 6 - - - -
25/07:00pm 10.9 NNW 10 14 1005.8 - 11.2 - Partly cloudy 6 - - - -
25/06:38pm 10.9 N 10 13 1005.8 - 10.8 - Cloudy 6 - - - -
25/06:30pm 10.9 N 10 13 1005.7 - 10.6 - Cloudy 10 - - - -
25/06:00pm 10.8 N 11 18 1005.6 - 10.6 - Cloudy 10 - - - -
25/05:30pm 10.7 N 11 14 1005.5 - 10.4 Rain Cloudy 10 - - - -
25/05:00pm 10.6 N 11 15 1005.5 - 9.4 - Partly cloudy 10 - - - -
25/04:30pm 10.7 N 12 17 1005.6 - 6.8 - Partly cloudy 10 - - - -
25/04:00pm 10.8 N 12 18 1005.7 - 4.2 - Partly cloudy 10 - - - -
25/03:30pm 10.9 NNW 11 17 1005.9 - 2.6 - Partly cloudy 10 - - - -
25/03:19pm 10.9 NNW 13 18 1005.9 - 2.4 - Partly cloudy 10 - - - -
25/03:14pm 10.9 NNW 13 19 1006.0 - 2.4 - Partly cloudy 10 - - - -
25/03:00pm 11.0 NNW 13 17 1006.2 - 2.2 - Partly cloudy 6 - - - -
25/02:54pm 11.0 NNW 12 17 1006.2 - 1.8 - Partly cloudy 6 - - - -
25/02:32pm 11.2 NNW 12 21 1006.2 - 1.6 - Partly cloudy 10 - - - -
25/02:30pm 11.2 NNW 13 21 1006.1 - 1.6 - Cloudy 10 - - - -
25/02:00pm 10.9 N 14 20 1005.9 - 1.6 - Partly cloudy 10 - - - -
25/01:30pm 11.0 N 13 21 1006.3 - 1.6 - Partly cloudy 10 - - - -
25/01:00pm 10.8 N 13 19 1006.7 - 1.4 - Partly cloudy 10 - - - -
25/12:30pm 10.8 N 14 21 1007.1 - 1.0 - Partly cloudy 10 - - - -
25/12:00pm 11.3 N 14 22 1007.6 - 0.2 - Partly cloudy 10 - - - -
25/11:30am 12.3 N 15 21 1007.9 - 0.0 - Cloudy 10 - - - -
25/11:00am 12.1 N 15 22 1008.5 - 0.0 - Partly cloudy 10 - - - -
25/10:30am 11.8 NNW 13 19 1009.0 - 0.0 - Partly cloudy 10 - - - -
25/10:00am 12.4 N 17 24 1008.9 - 0.0 - Partly cloudy 10 - - - -
25/09:30am 12.6 N 14 21 1009.2 - 0.0 - Partly cloudy 10 - - - -

Other Formats:

Comma delimited format used in spreadsheet applications
http://www.bom.gov.au/fwo/IDS60701/IDS60701.94828.axf

JavaScript Object Notation format (JSON) in row-major order
http://www.bom.gov.au/fwo/IDS60701/IDS60701.94828.json